createdAt,value
2019-03-02T00:00:23.662Z,20.25
2019-03-02T00:02:27.490Z,21.17
2019-03-02T00:04:31.631Z,21.12
2019-03-02T00:06:36.583Z,20.12
2019-03-02T00:08:40.527Z,20.02
2019-03-02T00:10:45.783Z,20.00
2019-03-02T00:12:50.105Z,21.45
2019-03-02T00:14:55.016Z,21.07
2019-03-02T00:16:59.253Z,21.20
2019-03-02T00:19:06.820Z,21.17
2019-03-02T00:21:09.427Z,21.68
2019-03-02T00:23:15.814Z,21.85
2019-03-02T00:25:19.187Z,21.37
2019-03-02T00:27:23.392Z,20.25
2019-03-02T00:29:27.518Z,20.25
2019-03-02T00:31:33.243Z,21.55
2019-03-02T00:33:37.191Z,21.65
2019-03-02T00:35:43.659Z,21.27
2019-03-02T00:37:47.335Z,20.20
2019-03-02T00:39:54.565Z,22.00
2019-03-02T00:41:57.076Z,20.35
2019-03-02T00:44:03.875Z,20.05
2019-03-02T00:46:07.139Z,20.05
2019-03-02T00:48:12.401Z,18.80
2019-03-02T00:50:16.603Z,20.55
2019-03-02T00:52:23.418Z,20.17
2019-03-02T00:54:26.359Z,18.57
2019-03-02T00:56:30.181Z,18.55
2019-03-02T00:58:34.353Z,19.15
2019-03-02T01:00:38.229Z,18.80
2019-03-02T01:02:42.383Z,19.48
2019-03-02T01:04:46.604Z,19.57
2019-03-02T01:06:50.917Z,18.50
2019-03-02T01:08:58.892Z,19.05
2019-03-02T01:11:02.902Z,19.85
2019-03-02T01:13:06.807Z,19.07
2019-03-02T01:15:13.624Z,18.25
2019-03-02T01:17:17.905Z,17.32
2019-03-02T01:19:22.009Z,18.15
2019-03-02T01:21:26.217Z,17.95
2019-03-02T01:23:30.457Z,17.23
2019-03-02T01:25:35.057Z,18.90
2019-03-02T01:27:39.264Z,17.20
2019-03-02T01:29:43.385Z,16.90
2019-03-02T01:31:47.503Z,18.32
2019-03-02T01:33:51.701Z,17.10
2019-03-02T01:35:56.910Z,16.75
2019-03-02T01:38:00.907Z,17.82
2019-03-02T01:40:09.567Z,16.45
2019-03-02T01:42:13.403Z,16.82
2019-03-02T01:44:17.635Z,17.27
2019-03-02T01:46:21.795Z,16.82
2019-03-02T01:48:26.642Z,17.52
2019-03-02T01:50:32.067Z,16.07
2019-03-02T01:52:35.898Z,16.30
2019-03-02T01:54:40.086Z,16.45
2019-03-02T01:56:43.909Z,16.40
2019-03-02T01:58:48.100Z,16.90
2019-03-02T02:00:52.307Z,16.02
2019-03-02T02:02:56.431Z,14.10
2019-03-02T02:05:00.637Z,16.65
2019-03-02T02:07:04.554Z,17.05
2019-03-02T02:09:08.526Z,15.32
2019-03-02T02:11:14.641Z,17.23
2019-03-02T02:13:18.361Z,16.07
2019-03-02T02:15:25.818Z,15.60
2019-03-02T02:17:30.307Z,17.35
2019-03-02T02:19:34.791Z,18.73
2019-03-02T02:21:40.378Z,17.85
2019-03-02T02:23:45.838Z,19.57
2019-03-02T02:25:50.133Z,19.50
2019-03-02T02:27:54.880Z,20.97
2019-03-02T02:29:59.919Z,20.27
2019-03-02T02:32:03.721Z,20.12
2019-03-02T02:34:07.542Z,22.77
2019-03-02T02:36:14.200Z,21.65
2019-03-02T02:38:17.696Z,21.12
2019-03-02T02:40:21.975Z,21.62
2019-03-02T02:42:26.181Z,21.35
2019-03-02T02:44:33.059Z,25.25
2019-03-02T02:46:36.248Z,23.00
2019-03-02T02:48:40.371Z,26.25
2019-03-02T02:50:44.576Z,25.92
2019-03-02T02:52:48.782Z,26.30
2019-03-02T02:54:57.613Z,25.37
2019-03-02T02:57:00.467Z,27.73
2019-03-02T02:59:04.624Z,28.52
2019-03-02T03:01:08.465Z,29.77
2019-03-02T03:03:16.068Z,29.25
2019-03-02T03:05:19.190Z,27.48
2019-03-02T03:07:23.407Z,28.15
2019-03-02T03:09:45.415Z,28.95
2019-03-02T03:11:46.551Z,29.02
2019-03-02T03:13:50.678Z,31.55
2019-03-02T03:15:54.498Z,29.95
2019-03-02T03:17:58.696Z,33.45
2019-03-02T03:20:09.816Z,30.50
2019-03-02T03:22:09.176Z,30.45
2019-03-02T03:24:15.428Z,31.05
2019-03-02T03:26:19.541Z,34.23
2019-03-02T03:28:25.959Z,34.95
2019-03-02T03:30:35.746Z,34.90
2019-03-02T03:32:35.208Z,35.13
2019-03-02T03:34:39.352Z,33.15
2019-03-02T03:36:43.578Z,33.33
2019-03-02T03:38:47.417Z,36.68
2019-03-02T03:40:51.590Z,35.40
2019-03-02T03:43:02.314Z,37.95
2019-03-02T03:45:04.398Z,37.23
2019-03-02T03:47:07.095Z,38.25
2019-03-02T03:49:11.315Z,38.17
2019-03-02T03:51:15.162Z,38.45
2019-03-02T03:53:21.783Z,39.23
2019-03-02T03:55:27.376Z,38.05
2019-03-02T03:57:30.716Z,38.25
2019-03-02T03:59:34.547Z,38.67
2019-03-02T04:01:38.737Z,38.90
2019-03-02T04:03:47.190Z,41.20
2019-03-02T04:05:50.744Z,41.65
2019-03-02T04:07:54.945Z,41.10
2019-03-02T04:09:59.068Z,40.67
2019-03-02T04:12:03.275Z,42.33
2019-03-02T04:14:07.469Z,40.80
2019-03-02T04:16:16.300Z,43.02
2019-03-02T04:18:57.244Z,40.92
2019-03-02T04:21:00.570Z,40.03
2019-03-02T04:23:07.738Z,38.42
2019-03-02T04:25:12.945Z,40.78
2019-03-02T04:27:17.829Z,39.03
2019-03-02T04:29:22.035Z,41.13
2019-03-02T04:31:26.358Z,40.65
2019-03-02T04:33:30.557Z,43.63
2019-03-02T04:35:35.198Z,41.70
2019-03-02T04:37:39.487Z,39.98
2019-03-02T04:39:46.467Z,42.48
2019-03-02T04:41:49.658Z,43.83
2019-03-02T04:43:53.998Z,41.48
2019-03-02T04:45:58.993Z,42.08
2019-03-02T04:48:03.533Z,43.78
2019-03-02T04:50:09.260Z,41.40
2019-03-02T04:52:14.579Z,42.45
2019-03-02T04:54:18.832Z,45.30
2019-03-02T04:56:25.202Z,44.45
2019-03-02T04:58:29.406Z,45.20
2019-03-02T05:00:33.616Z,45.78
2019-03-02T05:02:37.467Z,43.17
2019-03-02T05:04:41.643Z,45.12
2019-03-02T05:06:45.847Z,48.00
2019-03-02T05:08:49.700Z,45.88
2019-03-02T05:10:55.902Z,47.05
2019-03-02T05:13:00.034Z,46.40
2019-03-02T05:15:04.970Z,46.70
2019-03-02T05:17:09.057Z,46.10
2019-03-02T05:19:13.253Z,44.05
2019-03-02T05:21:17.076Z,42.40
2019-03-02T05:23:21.296Z,45.05
2019-03-02T05:25:25.504Z,47.05
2019-03-02T05:27:32.027Z,44.67
2019-03-02T05:29:35.642Z,44.48
2019-03-02T05:31:41.015Z,41.08
2019-03-02T05:33:45.020Z,45.30
2019-03-02T05:35:50.948Z,46.75
2019-03-02T05:37:55.082Z,44.70
2019-03-02T05:39:59.288Z,47.70
2019-03-02T05:42:03.490Z,46.98
2019-03-02T05:44:07.312Z,47.20
2019-03-02T05:46:11.513Z,52.38
2019-03-02T05:48:16.034Z,47.80
2019-03-02T05:50:26.589Z,42.78
2019-03-02T05:52:29.667Z,45.85
2019-03-02T05:54:38.621Z,47.35
2019-03-02T05:56:39.848Z,45.83
2019-03-02T05:58:44.054Z,49.95
2019-03-02T06:00:48.259Z,45.73
2019-03-02T06:02:52.481Z,43.95
2019-03-02T06:04:56.989Z,44.20
2019-03-02T06:07:02.027Z,46.23
2019-03-02T06:09:13.724Z,44.77
2019-03-02T06:11:15.072Z,44.25
2019-03-02T06:13:19.023Z,45.60
2019-03-02T06:15:23.184Z,45.20
2019-03-02T06:17:29.822Z,45.95
2019-03-02T06:19:34.887Z,44.30
2019-03-02T06:21:38.988Z,45.00
2019-03-02T06:23:43.124Z,44.90
2019-03-02T06:25:47.329Z,46.23
2019-03-02T06:27:51.236Z,45.60
2019-03-02T06:29:55.054Z,46.77
2019-03-02T06:31:59.248Z,45.92
2019-03-02T06:34:03.458Z,45.40
2019-03-02T06:36:08.657Z,46.35
2019-03-02T06:38:13.514Z,46.45
2019-03-02T06:40:20.155Z,50.35
2019-03-02T06:42:23.482Z,44.53
2019-03-02T06:44:30.850Z,46.88
2019-03-02T06:46:33.258Z,47.70
2019-03-02T06:48:37.434Z,47.38
2019-03-02T06:50:41.664Z,43.95
2019-03-02T06:52:45.884Z,45.48
2019-03-02T06:54:50.083Z,43.98
2019-03-02T06:56:57.697Z,47.05
2019-03-02T06:59:00.732Z,47.65
2019-03-02T07:01:05.993Z,47.27
2019-03-02T07:03:11.134Z,45.35
2019-03-02T07:05:15.766Z,48.75
2019-03-02T07:07:21.804Z,43.52
2019-03-02T07:09:25.708Z,48.15
2019-03-02T07:11:33.625Z,42.55
2019-03-02T07:13:36.293Z,45.43
2019-03-02T07:15:43.655Z,45.08
2019-03-02T07:17:54.029Z,44.15
2019-03-02T07:19:59.494Z,46.45
2019-03-02T07:22:03.770Z,43.52
2019-03-02T07:24:07.618Z,47.30
2019-03-02T07:26:11.803Z,48.73
2019-03-02T07:28:15.628Z,47.45
2019-03-02T07:30:19.920Z,45.65
2019-03-02T07:32:24.056Z,46.65
2019-03-02T07:34:28.255Z,44.65
2019-03-02T07:36:34.039Z,44.10
2019-03-02T07:38:38.513Z,45.33
2019-03-02T07:40:45.456Z,44.93
2019-03-02T07:42:48.782Z,43.50
2019-03-02T07:44:54.938Z,46.40
2019-03-02T07:46:58.483Z,48.40
2019-03-02T07:49:02.650Z,50.92
2019-03-02T07:51:06.759Z,45.12
2019-03-02T07:53:11.590Z,47.60
2019-03-02T07:55:19.119Z,47.43
2019-03-02T07:57:21.859Z,45.12
2019-03-02T07:59:26.515Z,46.55
2019-03-02T08:01:31.615Z,46.88
2019-03-02T08:03:35.818Z,46.23
2019-03-02T08:05:39.694Z,45.00
2019-03-02T08:07:43.942Z,46.80
2019-03-02T08:09:48.177Z,49.20
2019-03-02T08:11:52.360Z,43.85
2019-03-02T08:13:56.491Z,45.45
2019-03-02T08:16:03.225Z,45.98
2019-03-02T08:18:06.645Z,45.45
2019-03-02T08:20:13.406Z,47.03
2019-03-02T08:22:17.259Z,48.80
2019-03-02T08:24:21.086Z,49.63
2019-03-02T08:26:25.244Z,48.80
2019-03-02T08:28:29.098Z,47.33
2019-03-02T08:30:33.587Z,51.05
2019-03-02T08:32:38.087Z,49.67
2019-03-02T08:34:42.845Z,46.40
2019-03-02T08:36:50.258Z,49.00
2019-03-02T08:38:54.004Z,47.60
2019-03-02T08:41:00.343Z,45.85
2019-03-02T08:43:03.648Z,49.13
2019-03-02T08:45:11.209Z,49.05
2019-03-02T08:47:15.378Z,48.17
2019-03-02T08:49:19.579Z,49.05
2019-03-02T08:51:23.774Z,48.98
2019-03-02T08:53:27.607Z,49.15
2019-03-02T08:55:33.592Z,48.02
2019-03-02T08:57:37.745Z,49.90
2019-03-02T08:59:41.859Z,49.15
2019-03-02T09:01:46.069Z,47.50
2019-03-02T09:03:50.285Z,48.17
2019-03-02T09:05:55.556Z,45.95
2019-03-02T09:07:59.834Z,49.48
2019-03-02T09:10:05.083Z,49.15
2019-03-02T09:12:09.283Z,47.75
2019-03-02T09:14:13.598Z,53.97
2019-03-02T09:16:17.808Z,47.03
2019-03-02T09:18:23.547Z,48.70
2019-03-02T09:20:27.766Z,49.50
2019-03-02T09:22:31.979Z,49.55
2019-03-02T09:24:36.107Z,50.55
2019-03-02T09:26:40.309Z,50.05
2019-03-02T09:28:44.506Z,46.58
2019-03-02T09:30:48.369Z,47.78
2019-03-02T09:32:54.113Z,49.00
2019-03-02T09:35:00.688Z,50.12
2019-03-02T09:37:07.003Z,50.12
2019-03-02T09:39:10.799Z,49.48
2019-03-02T09:41:15.027Z,49.03
2019-03-02T09:43:18.853Z,47.05
2019-03-02T09:45:23.249Z,50.55
2019-03-02T09:47:27.444Z,48.35
2019-03-02T09:49:33.850Z,52.33
2019-03-02T09:51:37.125Z,50.88
2019-03-02T09:53:41.328Z,49.85
2019-03-02T09:55:47.088Z,52.48
2019-03-02T09:57:50.909Z,45.25
2019-03-02T09:59:54.761Z,48.68
2019-03-02T10:01:58.987Z,46.33
2019-03-02T10:04:06.007Z,45.50
2019-03-02T10:06:08.660Z,46.98
2019-03-02T10:08:13.259Z,45.20
2019-03-02T10:10:19.023Z,45.28
2019-03-02T10:12:23.220Z,44.53
2019-03-02T10:14:27.578Z,44.42
2019-03-02T10:16:31.744Z,43.48
2019-03-02T10:18:35.990Z,44.48
2019-03-02T10:20:42.622Z,39.55
2019-03-02T10:22:46.055Z,43.52
2019-03-02T10:24:53.239Z,42.23
2019-03-02T10:26:56.194Z,41.20
2019-03-02T10:29:01.667Z,42.80
2019-03-02T10:31:06.118Z,40.73
2019-03-02T10:33:10.977Z,46.30
2019-03-02T10:35:17.143Z,40.10
2019-03-02T10:37:21.554Z,40.67
2019-03-02T10:39:29.132Z,38.92
2019-03-02T10:41:31.319Z,38.17
2019-03-02T10:43:35.526Z,38.30
2019-03-02T10:45:40.837Z,35.05
2019-03-02T10:47:45.099Z,35.48
2019-03-02T10:49:49.346Z,35.15
2019-03-02T10:51:53.496Z,30.50
2019-03-02T10:53:59.561Z,35.67
2019-03-02T10:56:02.895Z,32.30
2019-03-02T10:58:06.773Z,31.23
2019-03-02T11:00:17.835Z,32.83
2019-03-02T11:02:21.737Z,32.50
2019-03-02T11:04:26.900Z,30.33
2019-03-02T11:06:33.093Z,30.10
2019-03-02T11:08:58.025Z,28.40
2019-03-02T11:11:18.536Z,31.43
2019-03-02T11:13:26.830Z,29.80
2019-03-02T11:15:43.534Z,27.93
2019-03-02T11:17:58.819Z,28.03
2019-03-02T11:20:04.354Z,30.00
2019-03-02T11:22:10.989Z,27.70
2019-03-02T11:24:34.752Z,29.73
2019-03-02T11:26:51.752Z,28.00
2019-03-02T11:28:57.354Z,28.13
2019-03-02T11:31:11.906Z,28.43
2019-03-02T11:33:23.107Z,27.00
2019-03-02T11:35:43.366Z,27.67
2019-03-02T11:38:06.712Z,28.27
2019-03-02T11:40:17.794Z,27.97
2019-03-02T11:42:23.368Z,25.40
2019-03-02T11:44:34.247Z,26.80
2019-03-02T11:46:39.769Z,23.80
2019-03-02T11:48:56.754Z,23.23
2019-03-02T11:51:03.842Z,23.87
2019-03-02T11:53:15.639Z,21.70
2019-03-02T11:55:22.815Z,22.37
2019-03-02T11:57:31.039Z,21.50
2019-03-02T11:59:51.942Z,22.53
2019-03-02T12:02:00.351Z,18.50
2019-03-02T12:04:14.926Z,19.37
2019-03-02T12:06:37.888Z,18.67
2019-03-02T12:08:57.934Z,18.53
2019-03-02T12:11:10.088Z,17.43
2019-03-02T12:13:23.352Z,16.27
2019-03-02T12:15:28.895Z,15.03
2019-03-02T12:17:41.005Z,16.53
2019-03-02T12:19:47.463Z,15.20
2019-03-02T12:21:54.080Z,15.77
2019-03-02T12:24:22.372Z,16.20
2019-03-02T12:26:38.362Z,15.60
2019-03-02T12:28:43.836Z,15.80
2019-03-02T12:30:49.258Z,15.53
2019-03-02T12:33:00.570Z,14.27
2019-03-02T12:35:07.546Z,14.60
2019-03-02T12:37:28.526Z,12.13
2019-03-02T12:39:49.983Z,13.00
2019-03-02T12:41:56.274Z,12.07
2019-03-02T12:44:01.782Z,12.20
2019-03-02T12:46:23.520Z,11.57
2019-03-02T12:48:34.867Z,11.23
2019-03-02T12:50:43.178Z,10.70
2019-03-02T12:52:57.734Z,9.83
2019-03-02T12:55:03.284Z,9.80
2019-03-02T12:57:09.642Z,10.03
2019-03-02T12:59:21.326Z,10.47
2019-03-02T13:01:43.086Z,9.60
2019-03-02T13:03:53.850Z,9.60
2019-03-02T13:06:10.973Z,9.17
2019-03-02T13:08:35.071Z,9.23
2019-03-02T13:10:58.591Z,8.87
2019-03-02T13:13:03.750Z,8.87
2019-03-02T13:15:12.776Z,9.47
2019-03-02T13:17:37.142Z,8.03
2019-03-02T13:19:44.406Z,9.00
2019-03-02T13:22:06.228Z,8.97
2019-03-02T13:24:14.815Z,9.40
2019-03-02T13:26:21.630Z,8.77
2019-03-02T13:28:27.060Z,9.20
2019-03-02T13:30:41.734Z,9.83
2019-03-02T13:32:56.971Z,8.00
2019-03-02T13:35:02.571Z,8.17
2019-03-02T13:37:16.968Z,8.63
2019-03-02T13:39:23.359Z,8.47
2019-03-02T13:41:34.428Z,7.33
2019-03-02T13:43:45.078Z,7.17
2019-03-02T13:45:59.361Z,7.80
2019-03-02T13:48:03.848Z,8.07
2019-03-02T13:50:10.042Z,7.23
2019-03-02T13:52:22.414Z,7.33
2019-03-02T13:54:27.616Z,7.50
2019-03-02T13:56:51.128Z,7.60
2019-03-02T13:58:58.904Z,6.77
2019-03-02T14:01:06.659Z,6.70
2019-03-02T14:03:28.368Z,7.83
2019-03-02T14:05:50.066Z,6.77
2019-03-02T14:08:08.344Z,6.30
2019-03-02T14:10:20.486Z,7.63
2019-03-02T14:12:26.980Z,6.43
2019-03-02T14:14:41.089Z,6.83
2019-03-02T14:17:03.700Z,7.03
2019-03-02T14:19:12.174Z,6.37
2019-03-02T14:21:17.705Z,6.60
2019-03-02T14:23:32.193Z,6.47
2019-03-02T14:25:51.228Z,7.20
2019-03-02T14:28:02.197Z,6.30
2019-03-02T14:30:12.348Z,6.50
2019-03-02T14:32:20.752Z,6.23
2019-03-02T14:34:26.332Z,6.53
2019-03-02T14:36:34.860Z,6.93
2019-03-02T14:38:42.019Z,6.97
2019-03-02T14:41:04.980Z,6.80
2019-03-02T14:43:22.110Z,6.47
2019-03-02T14:45:27.608Z,5.80
2019-03-02T14:47:44.838Z,6.17
2019-03-02T14:50:08.137Z,6.97
2019-03-02T14:52:16.391Z,6.07
2019-03-02T14:54:31.148Z,5.87
2019-03-02T14:56:39.367Z,6.20
2019-03-02T14:58:44.908Z,6.00
2019-03-02T15:01:06.516Z,6.40
2019-03-02T15:03:14.728Z,5.77
2019-03-02T15:05:28.930Z,6.30
2019-03-02T15:07:42.940Z,6.33
2019-03-02T15:10:03.092Z,6.50
2019-03-02T15:12:08.551Z,5.40
2019-03-02T15:14:14.104Z,5.73
2019-03-02T15:16:25.474Z,5.53
2019-03-02T15:18:42.853Z,5.70
2019-03-02T15:20:48.440Z,5.73
2019-03-02T15:23:00.418Z,5.80
2019-03-02T15:25:26.122Z,6.07
2019-03-02T15:27:35.440Z,5.20
2019-03-02T15:29:40.942Z,5.80
2019-03-02T15:31:55.486Z,5.50
2019-03-02T15:34:01.037Z,5.77
2019-03-02T15:36:10.982Z,5.00
2019-03-02T15:38:17.547Z,5.50
2019-03-02T15:40:28.802Z,5.27
2019-03-02T15:42:35.368Z,5.57
2019-03-02T15:44:47.526Z,5.57
2019-03-02T15:47:00.505Z,5.93
2019-03-02T15:49:22.635Z,6.07
2019-03-02T15:51:32.224Z,5.77
2019-03-02T15:53:56.369Z,5.27
2019-03-02T15:56:02.593Z,5.20
2019-03-02T15:58:24.626Z,5.50
2019-03-02T16:00:50.740Z,6.57
2019-03-02T16:03:08.698Z,5.13
2019-03-02T16:05:19.881Z,5.97
2019-03-02T16:07:25.415Z,5.10
2019-03-02T16:09:43.056Z,5.87
2019-03-02T16:11:51.247Z,5.70
2019-03-02T16:14:02.525Z,5.27
2019-03-02T16:16:08.091Z,5.10
2019-03-02T16:18:30.025Z,4.83
2019-03-02T16:20:38.957Z,5.03
2019-03-02T16:22:43.551Z,5.78
2019-03-02T16:24:49.085Z,5.63
2019-03-02T16:26:56.048Z,5.97
2019-03-02T16:29:01.479Z,6.00
2019-03-02T16:31:26.621Z,6.00
2019-03-02T16:33:34.193Z,5.33
2019-03-02T16:36:03.433Z,5.67
2019-03-02T16:38:07.549Z,5.13
2019-03-02T16:40:21.327Z,5.50
2019-03-02T16:42:34.815Z,5.30
2019-03-02T16:44:40.746Z,5.37
2019-03-02T16:46:52.525Z,6.95
2019-03-02T16:49:00.989Z,6.10
2019-03-02T16:51:17.471Z,6.40
2019-03-02T16:53:25.940Z,5.42
2019-03-02T16:55:31.793Z,5.60
2019-03-02T16:57:53.735Z,5.60
2019-03-02T17:00:05.277Z,5.13
2019-03-02T17:02:25.675Z,4.97
2019-03-02T17:04:51.347Z,5.47
2019-03-02T17:06:57.174Z,4.33
2019-03-02T17:09:02.413Z,4.40
2019-03-02T17:11:08.314Z,4.07
2019-03-02T17:13:16.659Z,3.40
2019-03-02T17:15:38.113Z,3.27
2019-03-02T17:18:00.144Z,3.25
2019-03-02T17:20:21.335Z,3.52
2019-03-02T17:22:39.273Z,3.62
2019-03-02T17:24:50.855Z,3.40
2019-03-02T17:27:12.875Z,3.98
2019-03-02T17:29:24.267Z,3.92
2019-03-02T17:31:30.107Z,3.70
2019-03-02T17:33:35.866Z,4.15
2019-03-02T17:35:50.335Z,4.12
2019-03-02T17:38:02.084Z,4.30
2019-03-02T17:40:26.391Z,4.50
2019-03-02T17:42:50.155Z,4.60
2019-03-02T17:45:01.547Z,4.30
2019-03-02T17:47:26.578Z,4.45
2019-03-02T17:49:46.059Z,4.35
2019-03-02T17:52:00.564Z,4.92
2019-03-02T17:54:15.519Z,4.92
2019-03-02T17:56:29.983Z,4.90
2019-03-02T17:58:44.531Z,4.83
2019-03-02T18:00:57.023Z,5.08
2019-03-02T18:03:03.499Z,5.45
2019-03-02T18:05:27.122Z,4.93
2019-03-02T18:07:38.285Z,5.28
2019-03-02T18:10:02.901Z,5.80
2019-03-02T18:12:10.991Z,5.97
2019-03-02T18:14:20.185Z,6.25
2019-03-02T18:16:24.251Z,5.83
2019-03-02T18:18:31.931Z,6.60
2019-03-02T18:20:34.067Z,6.67
2019-03-02T18:22:38.239Z,6.70
2019-03-02T18:24:42.457Z,6.87
2019-03-02T18:26:46.589Z,6.85
2019-03-02T18:28:54.082Z,6.47
2019-03-02T18:30:57.476Z,6.67
2019-03-02T18:33:03.413Z,5.97
2019-03-02T18:35:07.643Z,6.55
2019-03-02T18:37:11.833Z,6.87
2019-03-02T18:39:15.997Z,6.85
2019-03-02T18:41:20.157Z,7.17
2019-03-02T18:43:24.374Z,7.22
2019-03-02T18:45:28.588Z,7.78
2019-03-02T18:47:32.420Z,7.45
2019-03-02T18:49:51.094Z,7.25
2019-03-02T18:51:54.426Z,8.48
2019-03-02T18:54:13.690Z,9.05
2019-03-02T18:56:17.913Z,9.35
2019-03-02T18:58:24.008Z,9.85
2019-03-02T19:00:29.717Z,8.70
2019-03-02T19:02:33.526Z,8.48
2019-03-02T19:04:38.623Z,8.65
2019-03-02T19:06:42.769Z,8.05
2019-03-02T19:08:47.216Z,8.75
2019-03-02T19:10:57.178Z,8.55
2019-03-02T19:13:05.051Z,8.43
2019-03-02T19:15:14.003Z,8.85
2019-03-02T19:17:18.162Z,9.40
2019-03-02T19:19:22.377Z,10.40
2019-03-02T19:21:26.582Z,10.08
2019-03-02T19:23:30.700Z,10.38
2019-03-02T19:25:34.566Z,10.30
2019-03-02T19:27:38.706Z,10.32
2019-03-02T19:29:42.922Z,11.00
2019-03-02T19:31:46.773Z,10.15
2019-03-02T19:33:50.941Z,9.68
2019-03-02T19:35:55.167Z,10.65
2019-03-02T19:37:59.366Z,10.40
2019-03-02T19:40:03.499Z,10.20
2019-03-02T19:42:07.684Z,10.90
2019-03-02T19:44:14.442Z,11.20
2019-03-02T19:46:18.308Z,10.80
2019-03-02T19:48:22.472Z,10.28
2019-03-02T19:50:27.003Z,10.23
2019-03-02T19:52:31.227Z,10.35
2019-03-02T19:54:35.428Z,10.55
2019-03-02T19:56:39.528Z,10.10
2019-03-02T19:58:43.742Z,10.28
2019-03-02T20:00:47.964Z,10.35
2019-03-02T20:02:52.062Z,10.80
2019-03-02T20:04:55.928Z,10.95
2019-03-02T20:06:59.736Z,11.85
2019-03-02T20:09:05.356Z,10.63
2019-03-02T20:11:09.540Z,11.30
2019-03-02T20:13:13.405Z,11.18
2019-03-02T20:15:28.071Z,11.70
2019-03-02T20:17:32.204Z,12.33
2019-03-02T20:19:36.522Z,11.57
2019-03-02T20:21:40.740Z,11.30
2019-03-02T20:23:47.628Z,11.78
2019-03-02T20:25:51.824Z,13.43
2019-03-02T20:27:55.976Z,13.05
2019-03-02T20:29:59.840Z,14.55
2019-03-02T20:32:04.047Z,13.38
2019-03-02T20:34:08.256Z,13.58
2019-03-02T20:36:12.128Z,15.13
2019-03-02T20:38:19.512Z,15.10
2019-03-02T20:40:25.299Z,14.18
2019-03-02T20:42:29.136Z,14.13
2019-03-02T20:44:34.621Z,14.40
2019-03-02T20:46:38.810Z,16.25
2019-03-02T20:48:43.426Z,17.57
2019-03-02T20:50:47.248Z,14.90
2019-03-02T20:52:51.505Z,15.60
2019-03-02T20:54:56.850Z,15.55
2019-03-02T20:57:01.064Z,15.20
2019-03-02T20:59:05.304Z,15.10
2019-03-02T21:01:09.497Z,14.33
2019-03-02T21:03:13.704Z,14.28
2019-03-02T21:05:17.905Z,13.90
2019-03-02T21:07:22.108Z,15.83
2019-03-02T21:09:26.332Z,15.20
2019-03-02T21:11:30.166Z,14.45
2019-03-02T21:13:34.007Z,14.20
2019-03-02T21:15:43.675Z,17.15
2019-03-02T21:17:47.893Z,15.55
2019-03-02T21:19:51.768Z,16.35
2019-03-02T21:21:56.097Z,16.82
2019-03-02T21:24:01.732Z,15.53
2019-03-02T21:26:06.224Z,15.43
2019-03-02T21:28:10.187Z,17.00
2019-03-02T21:30:18.843Z,16.07
2019-03-02T21:32:22.676Z,15.83
2019-03-02T21:34:28.662Z,15.28
2019-03-02T21:36:32.539Z,15.68
2019-03-02T21:38:36.368Z,16.32
2019-03-02T21:40:41.503Z,15.60
2019-03-02T21:42:45.620Z,15.32
2019-03-02T21:44:49.226Z,16.90
2019-03-02T21:46:52.904Z,16.10
2019-03-02T21:48:57.016Z,16.50
2019-03-02T21:51:04.932Z,15.98
2019-03-02T21:53:09.121Z,16.93
2019-03-02T21:55:13.216Z,16.90
2019-03-02T21:57:17.361Z,15.20
2019-03-02T21:59:21.488Z,16.32
2019-03-02T22:01:25.294Z,16.52
2019-03-02T22:03:29.163Z,16.80
2019-03-02T22:05:32.994Z,16.45
2019-03-02T22:07:37.280Z,16.70
2019-03-02T22:09:41.394Z,16.93
2019-03-02T22:11:45.229Z,16.27
2019-03-02T22:13:49.422Z,16.05
2019-03-02T22:15:53.534Z,16.40
2019-03-02T22:17:57.938Z,16.35
2019-03-02T22:20:01.520Z,15.47
2019-03-02T22:22:05.652Z,14.78
2019-03-02T22:24:11.002Z,15.70
2019-03-02T22:26:14.844Z,15.65
2019-03-02T22:28:18.702Z,14.93
2019-03-02T22:30:27.574Z,16.45
2019-03-02T22:32:31.410Z,15.23
2019-03-02T22:34:35.243Z,16.02
2019-03-02T22:36:39.436Z,15.60
2019-03-02T22:38:43.561Z,14.80
2019-03-02T22:40:47.387Z,14.10
2019-03-02T22:42:51.573Z,13.62
2019-03-02T22:44:55.776Z,14.13
2019-03-02T22:46:59.981Z,14.45
2019-03-02T22:49:03.887Z,13.43
2019-03-02T22:51:07.721Z,13.58
2019-03-02T22:53:11.909Z,12.53
2019-03-02T22:55:16.836Z,13.08
2019-03-02T22:57:20.966Z,12.73
2019-03-02T22:59:24.828Z,12.35
2019-03-02T23:01:34.618Z,12.47
2019-03-02T23:03:37.680Z,11.63
2019-03-02T23:05:41.897Z,10.78
2019-03-02T23:07:46.604Z,11.33
2019-03-02T23:09:51.556Z,10.93
2019-03-02T23:11:55.770Z,10.90
2019-03-02T23:14:00.076Z,11.43
2019-03-02T23:16:07.177Z,12.00
2019-03-02T23:18:11.378Z,12.43
2019-03-02T23:20:15.240Z,12.28
2019-03-02T23:22:19.385Z,12.35
2019-03-02T23:24:23.319Z,12.03
2019-03-02T23:26:27.507Z,12.15
2019-03-02T23:28:31.728Z,11.12
2019-03-02T23:30:35.955Z,12.93
2019-03-02T23:32:40.131Z,12.40
2019-03-02T23:34:43.971Z,12.90
2019-03-02T23:36:48.173Z,12.10
2019-03-02T23:38:52.010Z,11.45
2019-03-02T23:40:56.173Z,11.93
2019-03-02T23:43:00.787Z,12.55
2019-03-02T23:45:07.361Z,11.53
2019-03-02T23:47:11.587Z,10.78
2019-03-02T23:49:15.787Z,10.65
2019-03-02T23:51:19.995Z,10.45
2019-03-02T23:53:24.101Z,10.50
2019-03-02T23:55:28.315Z,10.82
2019-03-02T23:57:32.635Z,10.00
2019-03-02T23:59:39.507Z,10.48
